createdAt,value
2018-06-01T00:00:29.595Z,24.69
2018-06-01T00:02:57.469Z,24.65
2018-06-01T00:05:25.238Z,24.69
2018-06-01T00:07:53.616Z,24.77
2018-06-01T00:10:21.191Z,24.88
2018-06-01T00:12:50.367Z,24.91
2018-06-01T00:15:17.971Z,24.95
2018-06-01T00:17:46.115Z,24.99
2018-06-01T00:20:13.713Z,24.98
2018-06-01T00:23:05.032Z,24.92
2018-06-01T00:25:32.655Z,24.92
2018-06-01T00:28:00.223Z,24.92
2018-06-01T00:30:29.767Z,24.88
2018-06-01T00:32:57.489Z,24.92
2018-06-01T00:35:25.129Z,24.95
2018-06-01T00:37:52.892Z,24.97
2018-06-01T00:40:20.376Z,25.02
2018-06-01T00:42:48.615Z,25.03
2018-06-01T00:45:16.805Z,25.02
2018-06-01T00:47:45.087Z,24.99
2018-06-01T00:50:12.625Z,24.96
2018-06-01T00:52:40.097Z,24.98
2018-06-01T00:55:19.543Z,24.93
2018-06-01T00:57:47.047Z,24.99
2018-06-01T01:00:14.517Z,24.94
2018-06-01T01:02:41.985Z,24.93
2018-06-01T01:05:09.445Z,24.94
2018-06-01T01:07:36.990Z,25.00
2018-06-01T01:10:04.445Z,24.95
2018-06-01T01:12:31.927Z,24.93
2018-06-01T01:14:59.416Z,24.92
2018-06-01T01:17:26.859Z,24.95
2018-06-01T01:19:54.317Z,24.88
2018-06-01T01:22:22.269Z,24.86
2018-06-01T01:24:49.703Z,24.79
2018-06-01T01:27:17.205Z,24.82
2018-06-01T01:29:46.382Z,24.75
2018-06-01T01:32:14.858Z,24.63
2018-06-01T01:34:42.600Z,24.53
2018-06-01T01:37:10.056Z,24.46
2018-06-01T01:39:37.684Z,24.34
2018-06-01T01:42:05.381Z,24.26
2018-06-01T01:44:33.044Z,24.22
2018-06-01T01:47:00.602Z,24.13
2018-06-01T01:49:28.264Z,24.02
2018-06-01T01:51:55.724Z,23.94
2018-06-01T01:54:23.587Z,23.90
2018-06-01T01:56:51.061Z,23.82
2018-06-01T01:59:18.750Z,23.75
2018-06-01T02:01:47.033Z,23.74
2018-06-01T02:04:15.005Z,23.72
2018-06-01T02:06:42.544Z,23.68
2018-06-01T02:09:10.325Z,23.65
2018-06-01T02:11:37.866Z,23.64
2018-06-01T02:14:05.315Z,23.68
2018-06-01T02:16:32.815Z,23.71
2018-06-01T02:19:00.242Z,23.78
2018-06-01T02:21:27.713Z,23.79
2018-06-01T02:23:55.591Z,23.83
2018-06-01T02:26:23.663Z,23.84
2018-06-01T02:28:51.271Z,23.82
2018-06-01T02:31:18.923Z,23.72
2018-06-01T02:34:10.063Z,23.70
2018-06-01T02:36:41.123Z,23.62
2018-06-01T02:39:08.818Z,23.57
2018-06-01T02:41:36.858Z,23.58
2018-06-01T02:44:04.501Z,23.63
2018-06-01T02:46:32.755Z,23.53
2018-06-01T02:49:00.414Z,23.51
2018-06-01T02:51:27.921Z,23.51
2018-06-01T02:53:55.463Z,23.45
2018-06-01T02:56:23.015Z,23.35
2018-06-01T02:58:50.492Z,23.32
2018-06-01T03:01:17.966Z,23.27
2018-06-01T03:03:45.506Z,23.16
2018-06-01T03:06:13.967Z,23.11
2018-06-01T03:08:41.417Z,23.10
2018-06-01T03:11:08.927Z,23.15
2018-06-01T03:13:46.265Z,23.20
2018-06-01T03:16:13.760Z,23.28
2018-06-01T03:18:41.223Z,23.34
2018-06-01T03:21:08.672Z,23.37
2018-06-01T03:23:37.155Z,23.39
2018-06-01T03:26:04.694Z,23.39
2018-06-01T03:28:32.151Z,23.29
2018-06-01T03:31:00.247Z,23.20
2018-06-01T03:33:28.021Z,23.07
2018-06-01T03:35:57.083Z,22.97
2018-06-01T03:38:24.535Z,22.91
2018-06-01T03:40:52.391Z,22.87
2018-06-01T03:43:39.903Z,22.89
2018-06-01T03:46:07.363Z,22.89
2018-06-01T03:48:35.129Z,22.84
2018-06-01T03:51:02.611Z,22.79
2018-06-01T03:53:30.095Z,22.86
2018-06-01T03:55:58.621Z,22.91
2018-06-01T03:58:27.431Z,22.88
2018-06-01T04:00:54.919Z,22.87
2018-06-01T04:03:22.449Z,22.88
2018-06-01T04:05:51.267Z,22.91
2018-06-01T04:08:18.961Z,22.99
2018-06-01T04:10:47.267Z,23.01
2018-06-01T04:13:15.991Z,23.08
2018-06-01T04:15:44.403Z,23.16
2018-06-01T04:18:11.883Z,23.12
2018-06-01T04:20:40.116Z,23.14
2018-06-01T04:26:00.772Z,23.06
2018-06-01T04:28:29.422Z,23.04
2018-06-01T04:30:59.263Z,23.00
2018-06-01T04:33:28.232Z,22.96
2018-06-01T04:35:56.116Z,22.96
2018-06-01T04:38:26.410Z,22.96
2018-06-01T04:40:53.962Z,22.94
2018-06-01T04:43:21.418Z,22.95
2018-06-01T04:45:49.326Z,22.97
2018-06-01T04:48:16.810Z,22.95
2018-06-01T04:50:44.394Z,22.98
2018-06-01T04:53:16.839Z,23.05
2018-06-01T04:55:44.279Z,23.13
2018-06-01T04:58:12.522Z,23.17
2018-06-01T05:00:39.979Z,23.21
2018-06-01T05:03:07.440Z,23.28
2018-06-01T05:05:34.895Z,23.31
2018-06-01T05:08:02.499Z,23.34
2018-06-01T05:10:29.961Z,23.32
2018-06-01T05:12:57.411Z,23.32
2018-06-01T05:15:24.876Z,23.28
2018-06-01T05:17:52.352Z,23.28
2018-06-01T05:20:20.006Z,23.30
2018-06-01T05:22:47.459Z,23.33
2018-06-01T05:25:14.911Z,23.33
2018-06-01T05:27:42.400Z,23.33
2018-06-01T05:30:12.686Z,23.37
2018-06-01T05:32:40.187Z,23.39
2018-06-01T05:35:07.649Z,23.41
2018-06-01T05:37:35.181Z,23.46
2018-06-01T05:40:02.980Z,23.48
2018-06-01T05:42:30.445Z,23.52
2018-06-01T05:44:57.881Z,23.55
2018-06-01T05:47:25.381Z,23.59
2018-06-01T05:49:52.828Z,23.66
2018-06-01T05:52:20.359Z,23.67
2018-06-01T05:54:47.811Z,23.73
2018-06-01T05:57:15.295Z,23.78
2018-06-01T05:59:42.895Z,23.84
2018-06-01T06:02:10.365Z,23.82
2018-06-01T06:04:37.896Z,23.87
2018-06-01T06:07:05.361Z,23.93
2018-06-01T06:09:32.827Z,23.95
2018-06-01T06:12:00.287Z,24.01
2018-06-01T06:14:27.743Z,24.00
2018-06-01T06:16:55.199Z,24.02
2018-06-01T06:19:22.656Z,24.06
2018-06-01T06:21:50.134Z,24.14
2018-06-01T06:24:17.603Z,24.15
2018-06-01T06:26:45.061Z,24.18
2018-06-01T06:29:12.516Z,24.23
2018-06-01T06:31:39.951Z,24.28
2018-06-01T06:34:07.469Z,24.34
2018-06-01T06:36:34.946Z,24.31
2018-06-01T06:39:02.407Z,24.33
2018-06-01T06:41:29.893Z,24.32
2018-06-01T06:43:58.281Z,24.29
2018-06-01T06:46:25.733Z,24.26
2018-06-01T06:48:53.187Z,24.19
2018-06-01T06:51:20.625Z,24.05
2018-06-01T06:53:48.071Z,23.94
2018-06-01T06:56:15.603Z,23.89
2018-06-01T06:58:43.686Z,23.81
2018-06-01T07:01:12.005Z,23.82
2018-06-01T07:03:39.611Z,23.74
2018-06-01T07:06:07.157Z,23.70
2018-06-01T07:08:34.655Z,23.61
2018-06-01T07:11:02.248Z,23.65
2018-06-01T07:13:29.747Z,23.62
2018-06-01T07:15:57.202Z,23.64
2018-06-01T07:18:24.691Z,23.66
2018-06-01T07:20:52.159Z,23.70
2018-06-01T07:23:19.638Z,23.71
2018-06-01T07:25:47.115Z,23.73
2018-06-01T07:28:14.577Z,23.77
2018-06-01T07:30:42.080Z,23.80
2018-06-01T07:33:09.566Z,23.81
2018-06-01T07:35:37.117Z,23.81
2018-06-01T07:38:04.647Z,23.79
2018-06-01T07:40:33.094Z,23.75
2018-06-01T07:43:05.457Z,23.77
2018-06-01T07:45:32.937Z,23.80
2018-06-01T07:48:01.320Z,23.83
2018-06-01T07:50:28.827Z,23.82
2018-06-01T07:52:56.287Z,23.82
2018-06-01T07:55:23.749Z,23.87
2018-06-01T07:57:51.238Z,23.89
2018-06-01T08:00:18.787Z,23.84
2018-06-01T08:02:46.265Z,23.80
2018-06-01T08:05:13.746Z,23.77
2018-06-01T08:07:41.207Z,23.76
2018-06-01T08:10:08.693Z,23.76
2018-06-01T08:12:36.159Z,23.73
2018-06-01T08:15:03.652Z,23.69
2018-06-01T08:17:31.127Z,23.64
2018-06-01T08:19:58.850Z,23.51
2018-06-01T08:22:26.318Z,23.41
2018-06-01T08:24:53.776Z,23.37
2018-06-01T08:27:22.196Z,23.27
2018-06-01T08:29:49.684Z,23.28
2018-06-01T08:32:17.175Z,23.37
2018-06-01T08:34:44.650Z,23.46
2018-06-01T08:37:12.337Z,23.51
2018-06-01T08:39:42.787Z,23.44
2018-06-01T08:42:10.549Z,23.42
2018-06-01T08:44:38.823Z,23.40
2018-06-01T08:47:06.284Z,23.40
2018-06-01T08:49:33.767Z,23.42
2018-06-01T08:52:01.207Z,23.42
2018-06-01T08:54:33.792Z,23.42
2018-06-01T08:57:01.251Z,23.44
2018-06-01T08:59:28.705Z,23.50
2018-06-01T09:01:56.228Z,23.56
2018-06-01T09:04:33.462Z,23.60
2018-06-01T09:07:00.897Z,23.62
2018-06-01T09:12:18.554Z,23.60
2018-06-01T09:14:46.015Z,23.61
2018-06-01T09:17:13.463Z,23.69
2018-06-01T09:19:40.912Z,23.79
2018-06-01T09:24:41.346Z,23.79
2018-06-01T09:27:08.813Z,23.84
2018-06-01T09:29:36.262Z,23.84
2018-06-01T09:32:03.753Z,23.78
2018-06-01T09:34:31.281Z,23.79
2018-06-01T09:36:58.667Z,23.79
2018-06-01T09:39:26.134Z,23.83
2018-06-01T09:41:53.574Z,23.81
2018-06-01T09:44:21.866Z,23.82
2018-06-01T09:46:49.496Z,23.84
2018-06-01T09:49:17.000Z,23.87
2018-06-01T09:51:44.491Z,23.90
2018-06-01T09:54:12.582Z,23.90
2018-06-01T09:56:40.349Z,23.91
2018-06-01T09:59:07.792Z,23.94
2018-06-01T10:01:35.284Z,23.97
2018-06-01T10:04:02.760Z,24.01
2018-06-01T10:06:30.198Z,24.02
2018-06-01T10:08:57.655Z,24.03
2018-06-01T10:11:25.088Z,24.06
2018-06-01T10:13:52.546Z,24.08
2018-06-01T10:16:20.001Z,24.18
2018-06-01T10:18:47.439Z,24.22
2018-06-01T10:21:14.938Z,24.29
2018-06-01T10:23:42.397Z,24.33
2018-06-01T10:26:10.360Z,24.40
2018-06-01T10:28:37.806Z,24.47
2018-06-01T10:31:05.284Z,24.49
2018-06-01T10:33:34.469Z,24.59
2018-06-01T10:36:02.205Z,24.77
2018-06-01T10:38:29.702Z,24.96
2018-06-01T10:40:58.179Z,25.13
2018-06-01T10:43:25.736Z,25.30
2018-06-01T10:45:53.237Z,25.43
2018-06-01T10:48:20.713Z,25.51
2018-06-01T10:50:50.004Z,25.58
2018-06-01T10:53:18.172Z,25.52
2018-06-01T10:55:45.718Z,25.51
2018-06-01T10:58:13.180Z,25.64
2018-06-01T11:00:40.938Z,25.77
2018-06-01T11:03:08.498Z,25.92
2018-06-01T11:05:35.987Z,26.05
2018-06-01T11:08:04.365Z,26.18
2018-06-01T11:10:31.964Z,26.32
2018-06-01T11:12:59.503Z,26.55
2018-06-01T11:15:26.986Z,26.74
2018-06-01T11:17:54.536Z,26.90
2018-06-01T11:20:22.059Z,27.09
2018-06-01T11:22:49.524Z,27.29
2018-06-01T11:25:17.012Z,27.36
2018-06-01T11:27:44.466Z,27.35
2018-06-01T11:30:11.924Z,27.44
2018-06-01T11:32:39.442Z,27.65
2018-06-01T11:35:07.108Z,27.75
2018-06-01T11:37:34.586Z,27.91
2018-06-01T11:40:02.181Z,28.06
2018-06-01T11:42:29.680Z,28.15
2018-06-01T11:44:57.966Z,28.21
2018-06-01T11:47:25.592Z,28.28
2018-06-01T11:49:53.141Z,28.47
2018-06-01T11:52:20.620Z,28.58
2018-06-01T11:54:48.056Z,28.71
2018-06-01T11:57:15.588Z,28.88
2018-06-01T11:59:43.016Z,28.93
2018-06-01T12:02:10.469Z,29.10
2018-06-01T12:04:38.137Z,29.22
2018-06-01T12:07:06.409Z,29.22
2018-06-01T12:09:33.969Z,29.32
2018-06-01T12:12:01.433Z,29.41
2018-06-01T12:14:28.945Z,29.51
2018-06-01T12:16:56.386Z,29.59
2018-06-01T12:19:23.883Z,29.70
2018-06-01T12:21:51.429Z,29.86
2018-06-01T12:24:18.908Z,29.98
2018-06-01T12:26:46.376Z,30.08
2018-06-01T12:29:14.245Z,30.11
2018-06-01T12:31:41.720Z,30.42
2018-06-01T12:34:09.428Z,30.30
2018-06-01T12:36:36.923Z,30.33
2018-06-01T12:39:05.222Z,30.28
2018-06-01T12:41:32.730Z,30.00
2018-06-01T12:44:00.184Z,29.78
2018-06-01T12:46:27.673Z,29.70
2018-06-01T12:48:55.202Z,29.71
2018-06-01T12:51:22.758Z,29.71
2018-06-01T12:53:50.232Z,29.71
2018-06-01T12:56:17.689Z,29.79
2018-06-01T12:58:45.218Z,29.92
2018-06-01T13:01:13.608Z,30.04
2018-06-01T13:03:41.683Z,30.17
2018-06-01T13:06:09.158Z,29.95
2018-06-01T13:08:36.598Z,29.59
2018-06-01T13:11:04.072Z,29.35
2018-06-01T13:13:31.532Z,29.18
2018-06-01T13:15:59.008Z,29.18
2018-06-01T13:18:26.467Z,29.22
2018-06-01T13:20:53.944Z,29.15
2018-06-01T13:23:21.408Z,29.05
2018-06-01T13:25:48.857Z,28.94
2018-06-01T13:28:16.324Z,29.15
2018-06-01T13:30:44.128Z,29.33
2018-06-01T13:33:11.584Z,29.26
2018-06-01T13:35:39.092Z,29.36
2018-06-01T13:38:06.560Z,29.62
2018-06-01T13:40:34.004Z,29.90
2018-06-01T13:43:01.504Z,30.06
2018-06-01T13:45:28.997Z,29.94
2018-06-01T13:47:56.454Z,29.99
2018-06-01T13:50:23.916Z,30.06
2018-06-01T13:52:51.353Z,30.07
2018-06-01T13:55:18.828Z,30.19
2018-06-01T13:57:46.293Z,30.35
2018-06-01T14:00:13.963Z,30.52
2018-06-01T14:02:41.590Z,30.55
2018-06-01T14:05:09.107Z,30.43
2018-06-01T14:07:36.599Z,30.37
2018-06-01T14:10:04.080Z,30.40
2018-06-01T14:12:31.519Z,30.35
2018-06-01T14:14:59.001Z,30.34
2018-06-01T14:17:26.480Z,30.26
2018-06-01T14:19:54.004Z,30.25
2018-06-01T14:22:21.610Z,30.22
2018-06-01T14:24:49.100Z,30.05
2018-06-01T14:27:16.572Z,29.81
2018-06-01T14:29:44.848Z,29.86
2018-06-01T14:32:12.324Z,30.01
2018-06-01T14:34:39.798Z,30.19
2018-06-01T14:37:07.268Z,30.31
2018-06-01T14:39:34.822Z,30.30
2018-06-01T14:42:02.355Z,30.13
2018-06-01T14:44:29.860Z,29.96
2018-06-01T14:46:57.389Z,29.89
2018-06-01T14:49:25.431Z,29.99
2018-06-01T14:52:10.785Z,30.03
2018-06-01T14:54:38.281Z,29.98
2018-06-01T14:57:05.742Z,29.77
2018-06-01T14:59:33.193Z,29.31
2018-06-01T15:02:00.664Z,28.92
2018-06-01T15:04:28.141Z,28.44
2018-06-01T15:06:55.585Z,28.13
2018-06-01T15:09:23.071Z,27.84
2018-06-01T15:11:50.548Z,27.62
2018-06-01T15:14:18.055Z,27.32
2018-06-01T15:16:45.548Z,27.11
2018-06-01T15:19:12.977Z,26.96
2018-06-01T15:21:40.688Z,26.78
2018-06-01T15:24:08.394Z,26.73
2018-06-01T15:26:35.877Z,26.51
2018-06-01T15:29:03.356Z,26.40
2018-06-01T15:31:30.893Z,26.32
2018-06-01T15:33:58.434Z,26.25
2018-06-01T15:36:25.898Z,26.14
2018-06-01T15:38:53.368Z,25.98
2018-06-01T15:41:21.101Z,25.78
2018-06-01T15:43:48.605Z,25.55
2018-06-01T15:46:16.083Z,25.43
2018-06-01T15:48:43.555Z,25.32
2018-06-01T15:51:11.001Z,25.03
2018-06-01T15:53:38.652Z,24.84
2018-06-01T15:56:06.130Z,24.67
2018-06-01T15:58:33.920Z,24.71
2018-06-01T16:01:01.387Z,24.87
2018-06-01T16:03:28.835Z,25.01
2018-06-01T16:05:56.296Z,25.10
2018-06-01T16:08:23.795Z,25.09
2018-06-01T16:10:51.255Z,25.13
2018-06-01T16:13:18.715Z,25.24
2018-06-01T16:15:46.268Z,25.28
2018-06-01T16:18:13.795Z,25.25
2018-06-01T16:20:41.248Z,25.31
2018-06-01T16:23:13.673Z,25.32
2018-06-01T16:25:41.183Z,25.22
2018-06-01T16:28:08.644Z,25.06
2018-06-01T16:30:36.308Z,24.92
2018-06-01T16:33:03.907Z,24.87
2018-06-01T16:35:31.578Z,24.86
2018-06-01T16:38:00.095Z,24.89
2018-06-01T16:40:27.575Z,25.05
2018-06-01T16:42:55.031Z,25.17
2018-06-01T16:45:22.502Z,25.22
2018-06-01T16:47:50.100Z,25.31
2018-06-01T16:50:17.611Z,25.31
2018-06-01T16:52:45.085Z,25.26
2018-06-01T16:55:13.647Z,25.16
2018-06-01T16:57:41.180Z,25.12
2018-06-01T17:00:08.683Z,25.13
2018-06-01T17:02:36.586Z,25.11
2018-06-01T17:05:04.070Z,25.12
2018-06-01T17:07:31.658Z,25.15
2018-06-01T17:09:59.140Z,25.22
2018-06-01T17:12:26.599Z,25.27
2018-06-01T17:14:54.149Z,25.31
2018-06-01T17:17:21.671Z,25.32
2018-06-01T17:19:49.113Z,25.34
2018-06-01T17:22:17.023Z,25.30
2018-06-01T17:24:44.479Z,25.27
2018-06-01T17:27:11.952Z,25.26
2018-06-01T17:29:39.401Z,25.23
2018-06-01T17:32:06.872Z,25.21
2018-06-01T17:34:34.323Z,25.15
2018-06-01T17:37:01.755Z,25.17
2018-06-01T17:39:29.199Z,25.19
2018-06-01T17:41:56.679Z,25.16
2018-06-01T17:44:24.155Z,25.18
2018-06-01T17:46:51.653Z,25.18
2018-06-01T17:49:19.791Z,25.19
2018-06-01T17:51:47.279Z,25.17
2018-06-01T17:54:14.785Z,25.13
2018-06-01T17:56:42.271Z,25.09
2018-06-01T17:59:09.759Z,25.10
2018-06-01T18:01:37.253Z,25.10
2018-06-01T18:04:04.780Z,25.10
2018-06-01T18:06:32.300Z,25.12
2018-06-01T18:08:59.795Z,25.17
2018-06-01T18:11:27.283Z,25.18
2018-06-01T18:13:55.152Z,25.16
2018-06-01T18:16:22.623Z,25.14
2018-06-01T18:18:50.092Z,25.14
2018-06-01T18:21:17.593Z,25.11
2018-06-01T18:23:45.251Z,25.15
2018-06-01T18:26:13.643Z,25.13
2018-06-01T18:28:41.155Z,25.01
2018-06-01T18:31:09.591Z,24.95
2018-06-01T18:33:37.090Z,24.89
2018-06-01T18:36:04.725Z,24.82
2018-06-01T18:38:32.315Z,24.86
2018-06-01T18:40:59.862Z,24.90
2018-06-01T18:43:27.415Z,24.78
2018-06-01T18:45:54.917Z,24.64
2018-06-01T18:48:22.413Z,24.53
2018-06-01T18:50:50.023Z,24.46
2018-06-01T18:53:17.563Z,24.38
2018-06-01T18:55:45.149Z,24.44
2018-06-01T18:58:12.721Z,24.41
2018-06-01T19:00:41.114Z,24.42
2018-06-01T19:03:08.648Z,24.47
2018-06-01T19:05:36.188Z,24.57
2018-06-01T19:08:04.146Z,24.59
2018-06-01T19:10:31.704Z,24.61
2018-06-01T19:12:59.254Z,24.63
2018-06-01T19:15:26.765Z,24.63
2018-06-01T19:17:54.289Z,24.54
2018-06-01T19:20:21.907Z,24.37
2018-06-01T19:22:49.354Z,24.28
2018-06-01T19:25:16.856Z,24.28
2018-06-01T19:27:45.459Z,24.34
2018-06-01T19:30:13.113Z,24.31
2018-06-01T19:32:40.629Z,24.28
2018-06-01T19:35:08.259Z,24.29
2018-06-01T19:37:36.375Z,24.32
2018-06-01T19:40:04.087Z,24.37
2018-06-01T19:42:33.255Z,24.38
2018-06-01T19:45:00.837Z,24.39
2018-06-01T19:47:28.364Z,24.41
2018-06-01T19:49:55.912Z,24.42
2018-06-01T19:52:23.452Z,24.44
2018-06-01T19:54:51.183Z,24.49
2018-06-01T19:57:19.913Z,24.50
2018-06-01T19:59:47.598Z,24.50
2018-06-01T20:02:16.095Z,24.53
2018-06-01T20:04:45.892Z,24.50
2018-06-01T20:07:13.589Z,24.52
2018-06-01T20:09:41.193Z,24.47
2018-06-01T20:12:10.025Z,24.40
2018-06-01T20:14:38.540Z,24.25
2018-06-01T20:17:06.736Z,24.11
2018-06-01T20:19:34.255Z,24.05
2018-06-01T20:22:01.864Z,24.02
2018-06-01T20:24:29.592Z,23.97
2018-06-01T20:26:57.121Z,23.93
2018-06-01T20:29:25.441Z,23.90
2018-06-01T20:31:53.297Z,23.87
2018-06-01T20:34:20.822Z,23.87
2018-06-01T20:36:48.823Z,23.88
2018-06-01T20:39:16.588Z,23.91
2018-06-01T20:41:44.259Z,23.95
2018-06-01T20:44:11.255Z,23.95
2018-06-01T20:46:39.089Z,23.97
2018-06-01T20:49:06.756Z,24.03
2018-06-01T20:51:34.477Z,24.03
2018-06-01T20:54:03.181Z,23.96
2018-06-01T20:56:30.975Z,23.95
2018-06-01T20:58:58.553Z,23.92
2018-06-01T21:01:26.309Z,23.92
2018-06-01T21:03:53.897Z,23.93
2018-06-01T21:06:22.443Z,23.90
2018-06-01T21:08:50.645Z,23.89
2018-06-01T21:11:18.159Z,23.92
2018-06-01T21:13:45.983Z,23.90
2018-06-01T21:16:13.773Z,23.88
2018-06-01T21:18:41.325Z,23.90
2018-06-01T21:21:09.576Z,23.79
2018-06-01T21:23:37.230Z,23.77
2018-06-01T21:26:04.839Z,23.78
2018-06-01T21:28:33.470Z,23.80
2018-06-01T21:31:01.077Z,23.70
2018-06-01T21:33:28.755Z,23.57
2018-06-01T21:35:57.216Z,23.55
2018-06-01T21:38:28.595Z,23.58
2018-06-01T21:40:57.333Z,23.57
2018-06-01T21:43:25.029Z,23.47
2018-06-01T21:45:52.507Z,23.43
2018-06-01T21:48:20.242Z,23.39
2018-06-01T21:50:47.786Z,23.33
2018-06-01T21:53:15.468Z,23.35
2018-06-01T21:55:43.011Z,23.40
2018-06-01T21:58:10.747Z,23.34
2018-06-01T22:00:38.330Z,23.32
2018-06-01T22:03:06.008Z,23.28
2018-06-01T22:05:33.501Z,23.19
2018-06-01T22:08:01.038Z,23.27
2018-06-01T22:10:28.514Z,23.20
2018-06-01T22:12:55.982Z,23.20
2018-06-01T22:15:23.857Z,23.15
2018-06-01T22:17:51.265Z,23.13
2018-06-01T22:20:18.942Z,23.24
2018-06-01T22:22:46.431Z,23.31
2018-06-01T22:25:14.706Z,23.22
2018-06-01T22:27:42.420Z,23.21
2018-06-01T22:30:10.017Z,23.19
2018-06-01T22:32:37.642Z,23.18
2018-06-01T22:35:05.177Z,23.19
2018-06-01T22:37:33.478Z,23.17
2018-06-01T22:40:01.020Z,23.10
2018-06-01T22:42:28.482Z,23.04
2018-06-01T22:44:56.026Z,23.04
2018-06-01T22:47:23.801Z,22.97
2018-06-01T22:49:52.401Z,22.94
2018-06-01T22:52:20.042Z,22.93
2018-06-01T22:54:47.563Z,22.87
2018-06-01T22:57:15.240Z,22.86
2018-06-01T22:59:42.761Z,22.86
2018-06-01T23:02:10.458Z,22.89
2018-06-01T23:04:38.030Z,22.86
2018-06-01T23:07:05.603Z,22.85
2018-06-01T23:09:33.060Z,22.78
2018-06-01T23:12:02.408Z,22.74
2018-06-01T23:14:29.985Z,22.66
2018-06-01T23:16:57.547Z,22.60
2018-06-01T23:19:25.011Z,22.51
2018-06-01T23:21:52.493Z,22.53
2018-06-01T23:24:19.939Z,22.52
2018-06-01T23:26:47.479Z,22.45
2018-06-01T23:29:15.159Z,22.37
2018-06-01T23:31:44.031Z,22.27
2018-06-01T23:34:21.216Z,22.21
2018-06-01T23:36:48.710Z,22.21
2018-06-01T23:39:16.156Z,22.19
2018-06-01T23:41:45.687Z,22.15
2018-06-01T23:44:14.331Z,22.10
2018-06-01T23:46:41.786Z,21.98
2018-06-01T23:49:09.227Z,21.86
2018-06-01T23:51:36.667Z,21.78
2018-06-01T23:54:04.195Z,21.81
2018-06-01T23:56:31.631Z,21.89
2018-06-01T23:58:59.349Z,21.92
